Time;durP1;ratioP1;P1;durP2;ratioP2;P2;SDS_P1;SDS_P2;PMS_P1;PMS_P2;Temp;Humidity;BMP_temperature;BMP_pressure;BME280_temperature;BME280_humidity;BME280_pressure;Samples;Min_cycle;Max_cycle;Signal;HPM_P1;HPM_P2
2022/02/06 00:00:01;;;;;;;;;;;13.70;99.90;;;;;;5028999;28;943;-47
2022/02/06 00:02:30;;;;;;;;;;;13.70;99.90;;;;;;5057024;28;917;-47
2022/02/06 00:04:56;;;;;;;;;;;13.60;99.90;;;;;;5058909;28;869;-47
2022/02/06 00:07:22;;;;;;;;;;;13.60;99.90;;;;;;5053801;28;892;-47
2022/02/06 00:09:49;;;;;;;;;;;13.60;99.90;;;;;;5055909;28;925;-47
2022/02/06 00:12:15;;;;;;;;;;;13.60;99.90;;;;;;4989656;28;1104;-47
2022/02/06 00:14:42;;;;;;;;;;;13.60;99.90;;;;;;5055737;28;873;-47
2022/02/06 00:17:09;;;;;;;;;;;13.60;99.90;;;;;;5055832;28;1906;-47
2022/02/06 00:19:41;;;;;;;;;;;13.50;99.90;;;;;;5054982;28;890;-47
2022/02/06 00:22:09;;;;;;;;;;;13.50;99.90;;;;;;5055020;28;834;-47
2022/02/06 00:24:45;;;;;;;;;;;13.50;99.90;;;;;;5055489;28;1021;-47
2022/02/06 00:27:27;;;;;;;;;;;13.50;99.90;;;;;;5055769;28;1120;-47
2022/02/06 00:30:08;;;;;;;;;;;13.50;99.90;;;;;;5055000;28;1017;-47
2022/02/06 00:43:27;;;;;;;;;;;13.40;99.90;;;;;;5056211;28;794;-47
2022/02/06 00:45:55;;;;;;;;;;;13.30;99.90;;;;;;5056362;28;958;-47
2022/02/06 00:48:26;;;;;;;;;;;13.30;99.90;;;;;;5055472;28;917;-47
2022/02/06 00:53:39;;;;;;;;;;;13.30;99.90;;;;;;5056375;28;778;-47
2022/02/06 00:56:25;;;;;;;;;;;13.30;99.90;;;;;;5055020;28;1902;-47
2022/02/06 00:58:52;;;;;;;;;;;13.30;99.90;;;;;;5038256;28;1107;-47
2022/02/06 01:01:18;;;;;;;;;;;13.20;99.90;;;;;;5055916;28;862;-47
2022/02/06 01:03:46;;;;;;;;;;;13.20;99.90;;;;;;5055443;28;1377;-47
2022/02/06 01:06:32;;;;;;;;;;;13.20;99.90;;;;;;5059433;28;1055;-47
2022/02/06 01:09:01;;;;;;;;;;;13.20;99.90;;;;;;5059421;28;1044;-47
2022/02/06 01:11:29;;;;;;;;;;;13.20;99.90;;;;;;5037780;28;1000;-47
2022/02/06 01:16:56;;;;;;;;;;;13.20;99.90;;;;;;4978644;28;1983;-47
2022/02/06 01:19:26;;;;;;;;;;;13.10;99.90;;;;;;4975872;28;1244;-47
2022/02/06 01:22:02;;;;;;;;;;;13.10;99.90;;;;;;4930836;28;1058;-47
2022/02/06 01:24:55;;;;;;;;;;;13.10;99.90;;;;;;4930812;28;1321;-48
2022/02/06 01:27:39;;;;;;;;;;;13.10;99.90;;;;;;4977948;28;1092;-47
2022/02/06 01:30:22;;;;;;;;;;;13.00;99.90;;;;;;4978574;28;1152;-47
2022/02/06 01:35:27;;;;;;;;;;;13.00;99.90;;;;;;4945575;28;916;-47
2022/02/06 01:38:09;;;;;;;;;;;13.00;99.90;;;;;;4916146;28;1976;-48
2022/02/06 01:43:27;;;;;;;;;;;13.00;99.90;;;;;;4923566;29;1198;-47
2022/02/06 01:46:24;;;;;;;;;;;13.00;99.90;;;;;;4920847;29;1072;-47
2022/02/06 02:33:27;;;;;;;;;;;12.70;99.90;;;;;;4983382;28;1078;-47
2022/02/06 02:49:37;;;;;;;;;;;12.60;99.90;;;;;;4996526;28;779;-47
2022/02/06 02:52:18;;;;;;;;;;;12.60;99.90;;;;;;4992130;28;1105;-47
2022/02/06 02:54:50;;;;;;;;;;;12.60;99.90;;;;;;4964209;28;941;-47
2022/02/06 02:57:27;;;;;;;;;;;12.60;99.90;;;;;;4996399;28;1898;-47
2022/02/06 03:00:19;;;;;;;;;;;12.60;99.90;;;;;;4995830;28;989;-47
2022/02/06 03:02:50;;;;;;;;;;;12.60;99.90;;;;;;4983396;28;888;-47
2022/02/06 03:05:18;;;;;;;;;;;12.60;99.90;;;;;;5058825;28;1332;-47
2022/02/06 03:07:44;;;;;;;;;;;12.50;99.90;;;;;;5075993;28;801;-47
2022/02/06 03:10:10;;;;;;;;;;;12.50;99.90;;;;;;5051492;28;939;-47
2022/02/06 03:12:37;;;;;;;;;;;12.50;99.90;;;;;;5039042;28;1069;-47
2022/02/06 03:15:20;;;;;;;;;;;12.50;99.90;;;;;;5056944;28;886;-47
2022/02/06 03:17:57;;;;;;;;;;;12.50;99.90;;;;;;5056695;28;1964;-47
2022/02/06 03:20:29;;;;;;;;;;;12.50;99.90;;;;;;5057291;28;865;-47
2022/02/06 03:23:01;;;;;;;;;;;12.50;99.90;;;;;;5057019;28;1151;-47
2022/02/06 03:25:28;;;;;;;;;;;12.50;99.90;;;;;;5056811;28;829;-47
2022/02/06 03:27:56;;;;;;;;;;;12.50;99.90;;;;;;5056215;28;923;-47
2022/02/06 03:30:29;;;;;;;;;;;12.40;99.90;;;;;;5056004;28;904;-47
2022/02/06 03:32:56;;;;;;;;;;;12.40;99.90;;;;;;5056941;28;749;-47
2022/02/06 03:35:24;;;;;;;;;;;12.40;99.90;;;;;;5056351;28;968;-47
2022/02/06 03:37:49;;;;;;;;;;;12.40;99.90;;;;;;5022336;28;1902;-48
2022/02/06 03:40:27;;;;;;;;;;;12.40;99.90;;;;;;5055458;28;1411;-47
2022/02/06 03:45:41;;;;;;;;;;;12.40;99.90;;;;;;5056163;28;791;-47
2022/02/06 03:51:06;;;;;;;;;;;12.30;99.90;;;;;;5045154;28;1235;-47
2022/02/06 03:53:41;;;;;;;;;;;12.30;99.90;;;;;;5056268;28;889;-47
2022/02/06 03:56:09;;;;;;;;;;;12.30;99.90;;;;;;5056628;28;1394;-55
2022/02/06 03:58:36;;;;;;;;;;;12.30;99.90;;;;;;5045794;28;1974;-55
2022/02/06 04:01:03;;;;;;;;;;;12.30;99.90;;;;;;5055185;28;957;-55
2022/02/06 04:03:30;;;;;;;;;;;12.30;99.90;;;;;;5056278;28;849;-55
2022/02/06 04:05:56;;;;;;;;;;;12.30;99.90;;;;;;5056640;28;888;-54
2022/02/06 04:08:25;;;;;;;;;;;12.30;99.90;;;;;;5054490;28;917;-55
2022/02/06 04:10:52;;;;;;;;;;;12.30;99.90;;;;;;5054193;28;813;-55
2022/02/06 04:13:23;;;;;;;;;;;12.20;99.90;;;;;;5056788;28;966;-55
2022/02/06 04:15:56;;;;;;;;;;;12.20;99.90;;;;;;5004365;28;949;-56
2022/02/06 04:19:18;;;;;;;;;;;12.20;99.90;;;;;;5074284;28;1919;-56
2022/02/06 04:21:09;;;;;;;;;;;12.20;99.90;;;;;;5064019;28;1380;-55
2022/02/06 04:23:36;;;;;;;;;;;12.20;99.90;;;;;;5039774;28;1097;-55
2022/02/06 04:26:02;;;;;;;;;;;12.20;99.90;;;;;;5074608;28;774;-57
2022/02/06 04:28:28;;;;;;;;;;;12.20;99.90;;;;;;5039958;28;945;-55
2022/02/06 04:30:55;;;;;;;;;;;12.20;99.90;;;;;;5075108;28;892;-55
2022/02/06 04:33:22;;;;;;;;;;;12.20;99.90;;;;;;5034595;28;1888;-54
2022/02/06 04:35:54;;;;;;;;;;;12.10;99.90;;;;;;5056197;28;880;-55
2022/02/06 04:41:44;;;;;;;;;;;12.10;99.90;;;;;;4978510;28;987;-55
2022/02/06 04:47:36;;;;;;;;;;;12.10;99.90;;;;;;4978690;28;821;-55
2022/02/06 05:28:21;;;;;;;;;;;12.00;99.90;;;;;;4958641;28;968;-55
2022/02/06 05:30:54;;;;;;;;;;;12.00;99.90;;;;;;4998195;28;1684;-55
2022/02/06 05:33:20;;;;;;;;;;;12.00;99.90;;;;;;4998003;28;867;-55
2022/02/06 05:35:46;;;;;;;;;;;12.00;99.90;;;;;;5054607;28;1049;-55
2022/02/06 05:38:12;;;;;;;;;;;12.00;99.90;;;;;;5058894;28;1901;-56
2022/02/06 05:40:39;;;;;;;;;;;12.00;99.90;;;;;;5058746;28;833;-55
2022/02/06 05:43:05;;;;;;;;;;;11.90;99.90;;;;;;5024264;28;1041;-55
2022/02/06 05:45:32;;;;;;;;;;;11.90;99.90;;;;;;5023545;28;1026;-55
2022/02/06 05:47:58;;;;;;;;;;;12.00;99.90;;;;;;5023949;28;1018;-55
2022/02/06 05:50:27;;;;;;;;;;;11.90;99.90;;;;;;5058175;28;1204;-55
2022/02/06 05:52:58;;;;;;;;;;;12.00;99.90;;;;;;5024211;28;958;-55
2022/02/06 05:55:32;;;;;;;;;;;11.90;99.90;;;;;;5058768;28;785;-55
2022/02/06 05:58:00;;;;;;;;;;;11.90;99.90;;;;;;5058176;28;1902;-55
2022/02/06 06:00:26;;;;;;;;;;;11.90;99.90;;;;;;5058779;28;852;-55
2022/02/06 06:02:56;;;;;;;;;;;11.90;99.90;;;;;;5023912;28;923;-55
2022/02/06 06:05:27;;;;;;;;;;;11.90;99.90;;;;;;5040480;28;1470;-55
2022/02/06 06:07:54;;;;;;;;;;;11.90;99.90;;;;;;5058068;28;822;-55
2022/02/06 06:10:22;;;;;;;;;;;11.90;99.90;;;;;;5058315;28;810;-55
2022/02/06 06:12:48;;;;;;;;;;;11.90;99.90;;;;;;5058315;28;797;-54
2022/02/06 06:15:16;;;;;;;;;;;11.90;99.90;;;;;;5023711;28;970;-55
2022/02/06 06:17:42;;;;;;;;;;;11.80;99.90;;;;;;5040114;28;1964;-55
2022/02/06 06:20:14;;;;;;;;;;;11.90;99.90;;;;;;5040138;28;893;-55
2022/02/06 06:22:41;;;;;;;;;;;11.80;99.90;;;;;;5058388;28;763;-55
2022/02/06 06:25:10;;;;;;;;;;;11.80;99.90;;;;;;5057708;28;1107;-55
2022/02/06 06:27:36;;;;;;;;;;;11.80;99.90;;;;;;5057920;28;849;-55
2022/02/06 06:30:04;;;;;;;;;;;11.80;99.90;;;;;;5058230;28;840;-55
2022/02/06 06:32:33;;;;;;;;;;;11.80;99.90;;;;;;5057996;28;833;-55
2022/02/06 06:35:00;;;;;;;;;;;11.80;99.90;;;;;;5004676;28;1056;-55
2022/02/06 06:37:27;;;;;;;;;;;11.80;99.90;;;;;;5057250;28;1910;-55
2022/02/06 06:39:53;;;;;;;;;;;11.80;99.90;;;;;;5057918;28;872;-55
2022/02/06 06:42:19;;;;;;;;;;;11.80;99.90;;;;;;5057663;28;854;-55
2022/02/06 06:44:45;;;;;;;;;;;11.80;99.90;;;;;;5057909;28;726;-55
2022/02/06 06:47:11;;;;;;;;;;;11.80;99.90;;;;;;5057899;28;868;-55
2022/02/06 06:49:38;;;;;;;;;;;11.80;99.90;;;;;;5056646;28;982;-55
2022/02/06 06:52:06;;;;;;;;;;;11.70;99.90;;;;;;5054164;28;810;-55
2022/02/06 06:54:41;;;;;;;;;;;11.80;99.90;;;;;;5053536;28;1153;-55
2022/02/06 06:57:20;;;;;;;;;;;11.70;99.90;;;;;;5022911;28;1909;-55
2022/02/06 07:05:09;;;;;;;;;;;11.70;99.90;;;;;;4957496;28;1104;-47
2022/02/06 07:07:36;;;;;;;;;;;11.70;99.90;;;;;;4957655;28;941;-47
2022/02/06 07:10:06;;;;;;;;;;;11.70;99.90;;;;;;4957385;28;1097;-47
2022/02/06 07:12:33;;;;;;;;;;;11.70;99.90;;;;;;4925802;28;1015;-47
2022/02/06 07:15:01;;;;;;;;;;;11.70;99.90;;;;;;4957321;28;965;-47
2022/02/06 07:17:28;;;;;;;;;;;11.70;99.90;;;;;;4941353;28;1911;-47
2022/02/06 07:19:55;;;;;;;;;;;11.70;99.90;;;;;;4961744;28;872;-47
2022/02/06 07:22:21;;;;;;;;;;;11.70;99.90;;;;;;4958266;28;1102;-47
2022/02/06 07:24:51;;;;;;;;;;;11.70;99.90;;;;;;4956587;28;1132;-47
2022/02/06 07:30:16;;;;;;;;;;;11.70;99.90;;;;;;4956479;28;1209;-47
2022/02/06 07:32:43;;;;;;;;;;;11.70;99.90;;;;;;4974982;28;973;-47
2022/02/06 07:35:10;;;;;;;;;;;11.70;99.90;;;;;;4957333;28;1099;-47
2022/02/06 07:37:37;;;;;;;;;;;11.70;99.90;;;;;;4941029;28;1976;-47
2022/02/06 07:40:10;;;;;;;;;;;11.70;99.90;;;;;;4956909;28;1002;-47
2022/02/06 07:42:37;;;;;;;;;;;11.80;99.90;;;;;;5008369;28;1065;-47
2022/02/06 07:45:05;;;;;;;;;;;11.80;99.90;;;;;;5036754;28;853;-47
2022/02/06 07:47:31;;;;;;;;;;;11.80;99.90;;;;;;5035926;28;793;-47
2022/02/06 07:49:58;;;;;;;;;;;11.80;99.90;;;;;;5034522;28;1104;-47
2022/02/06 07:52:25;;;;;;;;;;;11.90;99.90;;;;;;5034193;28;978;-47
2022/02/06 07:54:53;;;;;;;;;;;12.00;99.90;;;;;;5035262;28;899;-47
2022/02/06 07:57:20;;;;;;;;;;;12.00;99.90;;;;;;5018669;28;1975;-47
2022/02/06 08:00:10;;;;;;;;;;;12.10;99.90;;;;;;5037035;28;784;-47
2022/02/06 08:02:36;;;;;;;;;;;12.10;99.90;;;;;;5036694;28;808;-47
2022/02/06 08:05:03;;;;;;;;;;;12.20;99.90;;;;;;5052920;28;982;-47
2022/02/06 08:07:30;;;;;;;;;;;12.30;99.90;;;;;;5055099;28;793;-47
2022/02/06 08:09:59;;;;;;;;;;;12.40;99.90;;;;;;5016689;28;944;-47
2022/02/06 08:12:30;;;;;;;;;;;12.40;99.90;;;;;;5036204;28;1301;-47
2022/02/06 08:14:59;;;;;;;;;;;12.50;99.90;;;;;;5040244;28;845;-47
2022/02/06 08:17:45;;;;;;;;;;;12.60;99.90;;;;;;5040783;28;1913;-47
2022/02/06 08:20:15;;;;;;;;;;;12.70;99.90;;;;;;5039595;28;1227;-47
2022/02/06 08:22:42;;;;;;;;;;;12.80;99.90;;;;;;5040326;28;1047;-47
2022/02/06 08:25:10;;;;;;;;;;;12.80;99.90;;;;;;5055107;28;1037;-47
2022/02/06 08:27:37;;;;;;;;;;;12.90;99.90;;;;;;5059260;28;1131;-47
2022/02/06 08:30:04;;;;;;;;;;;13.00;99.90;;;;;;5059590;28;822;-47
2022/02/06 08:32:32;;;;;;;;;;;13.10;99.90;;;;;;5042139;28;1005;-47
2022/02/06 08:35:00;;;;;;;;;;;13.10;99.90;;;;;;5059730;28;881;-47
2022/02/06 08:37:26;;;;;;;;;;;13.20;99.90;;;;;;5060256;28;1898;-47
2022/02/06 08:39:54;;;;;;;;;;;13.30;99.90;;;;;;5059333;28;837;-47
2022/02/06 08:42:25;;;;;;;;;;;13.30;99.90;;;;;;5060139;28;771;-47
2022/02/06 08:44:52;;;;;;;;;;;13.40;99.90;;;;;;5059956;28;841;-47
2022/02/06 08:47:20;;;;;;;;;;;13.50;99.90;;;;;;5042429;28;1432;-47
2022/02/06 08:49:46;;;;;;;;;;;13.50;99.90;;;;;;5024447;28;945;-47
2022/02/06 08:52:14;;;;;;;;;;;13.60;99.90;;;;;;5059294;28;1223;-47
2022/02/06 08:54:41;;;;;;;;;;;13.60;99.90;;;;;;5059991;28;842;-47
2022/02/06 08:57:16;;;;;;;;;;;13.70;99.90;;;;;;5054938;28;1011;-47
2022/02/06 08:59:43;;;;;;;;;;;13.70;99.90;;;;;;5056300;28;809;-47
2022/02/06 09:02:10;;;;;;;;;;;13.70;99.90;;;;;;5059753;28;816;-47
2022/02/06 09:04:36;;;;;;;;;;;13.80;99.90;;;;;;5059174;28;1293;-47
2022/02/06 09:07:03;;;;;;;;;;;13.80;99.90;;;;;;5041520;28;1282;-47
2022/02/06 09:09:32;;;;;;;;;;;13.80;99.90;;;;;;5041633;28;870;-47
2022/02/06 09:12:00;;;;;;;;;;;13.90;99.90;;;;;;5059189;28;1297;-47
2022/02/06 09:14:27;;;;;;;;;;;13.90;99.90;;;;;;5024749;28;831;-47
2022/02/06 09:16:54;;;;;;;;;;;13.90;99.90;;;;;;5058785;28;874;-47
2022/02/06 09:19:20;;;;;;;;;;;14.00;99.90;;;;;;5069413;28;1957;-47
2022/02/06 09:21:48;;;;;;;;;;;14.00;99.90;;;;;;5059807;28;790;-47
2022/02/06 09:24:14;;;;;;;;;;;14.00;99.90;;;;;;5054007;28;1005;-47
2022/02/06 09:26:42;;;;;;;;;;;14.00;99.90;;;;;;5076118;28;1036;-47
2022/02/06 09:29:09;;;;;;;;;;;14.00;99.90;;;;;;5077233;28;1071;-47
2022/02/06 09:31:36;;;;;;;;;;;14.00;99.90;;;;;;4993699;28;1125;-47
2022/02/06 09:36:32;;;;;;;;;;;14.00;99.90;;;;;;5058970;28;892;-47
2022/02/06 09:39:00;;;;;;;;;;;14.10;99.90;;;;;;5059127;28;1902;-47
2022/02/06 09:41:26;;;;;;;;;;;14.00;99.90;;;;;;5059248;28;1448;-47
2022/02/06 09:43:56;;;;;;;;;;;14.00;99.90;;;;;;5061814;28;1133;-47
2022/02/06 09:46:23;;;;;;;;;;;14.10;99.90;;;;;;5057701;28;962;-47
2022/02/06 09:48:54;;;;;;;;;;;14.10;99.90;;;;;;5041437;28;904;-47
2022/02/06 09:51:20;;;;;;;;;;;14.10;99.90;;;;;;5024339;28;1194;-47
2022/02/06 09:53:46;;;;;;;;;;;14.10;99.90;;;;;;5058806;28;846;-47
2022/02/06 09:56:16;;;;;;;;;;;14.10;99.90;;;;;;5023753;28;996;-47
2022/02/06 10:01:22;;;;;;;;;;;14.20;99.90;;;;;;5058605;28;881;-47
2022/02/06 10:03:50;;;;;;;;;;;14.20;99.90;;;;;;5058248;28;845;-47
2022/02/06 10:06:22;;;;;;;;;;;14.20;99.90;;;;;;5058681;28;1081;-47
2022/02/06 10:08:57;;;;;;;;;;;14.30;99.90;;;;;;5006292;28;1020;-47
2022/02/06 10:11:23;;;;;;;;;;;14.30;99.90;;;;;;5006860;28;953;-47
2022/02/06 10:13:52;;;;;;;;;;;14.30;99.90;;;;;;5040461;28;862;-47
2022/02/06 10:16:25;;;;;;;;;;;14.30;99.90;;;;;;5057941;28;946;-47
2022/02/06 10:18:53;;;;;;;;;;;14.30;99.90;;;;;;5056868;28;1899;-47
2022/02/06 10:21:28;;;;;;;;;;;14.30;99.90;;;;;;5057422;28;974;-47
2022/02/06 10:24:02;;;;;;;;;;;14.40;99.90;;;;;;5058241;28;1001;-47
2022/02/06 10:29:43;;;;;;;;;;;14.40;99.90;;;;;;5006072;28;1345;-47
2022/02/06 10:32:16;;;;;;;;;;;14.40;99.90;;;;;;5040092;28;1163;-47
2022/02/06 10:34:42;;;;;;;;;;;14.40;99.90;;;;;;5057755;28;939;-47
2022/02/06 10:37:29;;;;;;;;;;;14.40;99.90;;;;;;5022223;28;1109;-47
2022/02/06 10:40:02;;;;;;;;;;;14.50;99.90;;;;;;5016927;28;959;-47
2022/02/06 10:42:30;;;;;;;;;;;14.50;99.90;;;;;;5053005;28;849;-48
2022/02/06 10:45:21;;;;;;;;;;;14.50;99.90;;;;;;5057390;28;830;-48
2022/02/06 10:47:52;;;;;;;;;;;14.50;99.90;;;;;;5039597;28;1426;-47
2022/02/06 10:50:20;;;;;;;;;;;14.50;99.90;;;;;;5023160;28;941;-47
2022/02/06 10:52:46;;;;;;;;;;;14.50;99.90;;;;;;5057824;28;794;-47
2022/02/06 10:55:16;;;;;;;;;;;14.50;99.90;;;;;;5057685;28;746;-47
2022/02/06 10:57:54;;;;;;;;;;;14.50;99.90;;;;;;5022998;28;1910;-47
2022/02/06 11:00:39;;;;;;;;;;;14.50;99.90;;;;;;5057473;28;955;-47
2022/02/06 11:03:23;;;;;;;;;;;14.50;99.90;;;;;;5057500;28;970;-48
2022/02/06 11:05:53;;;;;;;;;;;14.50;99.90;;;;;;5022221;28;995;-47
2022/02/06 11:08:29;;;;;;;;;;;14.50;99.90;;;;;;5056879;28;1033;-47
2022/02/06 11:10:57;;;;;;;;;;;14.50;99.90;;;;;;5061583;28;1266;-47
2022/02/06 11:13:25;;;;;;;;;;;14.40;99.90;;;;;;5040328;28;1037;-47
2022/02/06 11:15:51;;;;;;;;;;;14.40;99.90;;;;;;5074599;28;838;-47
2022/02/06 11:18:23;;;;;;;;;;;14.40;99.90;;;;;;5064096;28;1968;-47
2022/02/06 11:21:02;;;;;;;;;;;14.40;99.90;;;;;;5056531;28;865;-47
2022/02/06 11:23:41;;;;;;;;;;;14.40;99.90;;;;;;5032853;28;1068;-47
2022/02/06 11:26:26;;;;;;;;;;;14.40;99.90;;;;;;5049027;28;1061;-47
2022/02/06 11:28:53;;;;;;;;;;;14.40;99.90;;;;;;5057148;28;817;-47
2022/02/06 11:31:22;;;;;;;;;;;14.40;99.90;;;;;;5057176;28;789;-47
2022/02/06 11:33:49;;;;;;;;;;;14.40;99.90;;;;;;5056916;28;882;-47
2022/02/06 11:43:00;;;;;;;;;;;14.40;99.90;;;;;;5056471;28;875;-47
2022/02/06 11:45:17;;;;;;;;;;;14.40;99.90;;;;;;5056315;28;824;-47
2022/02/06 11:47:44;;;;;;;;;;;14.40;99.90;;;;;;5021585;28;999;-47
2022/02/06 11:50:12;;;;;;;;;;;14.40;99.90;;;;;;4995030;28;1225;-47
2022/02/06 11:52:58;;;;;;;;;;;14.40;99.90;;;;;;4994892;28;879;-47
2022/02/06 11:55:30;;;;;;;;;;;14.40;99.90;;;;;;4995073;28;890;-47
2022/02/06 11:58:15;;;;;;;;;;;14.40;99.90;;;;;;4994930;28;1898;-47
2022/02/06 12:00:42;;;;;;;;;;;14.40;99.90;;;;;;4995381;28;819;-47
2022/02/06 12:03:12;;;;;;;;;;;14.50;99.90;;;;;;4995498;28;867;-47
2022/02/06 12:05:57;;;;;;;;;;;14.40;99.90;;;;;;4995251;28;976;-47
2022/02/06 12:08:25;;;;;;;;;;;14.40;99.90;;;;;;4995562;28;859;-47
2022/02/06 12:11:15;;;;;;;;;;;14.40;99.90;;;;;;4995600;28;969;-47
2022/02/06 12:13:42;;;;;;;;;;;14.40;99.90;;;;;;4961603;28;1066;-47
2022/02/06 12:16:18;;;;;;;;;;;14.40;99.90;;;;;;4988613;28;1001;-47
2022/02/06 12:18:46;;;;;;;;;;;14.40;99.90;;;;;;4990830;28;1895;-47
2022/02/06 12:21:21;;;;;;;;;;;14.40;99.90;;;;;;5023748;28;965;-47
2022/02/06 12:24:03;;;;;;;;;;;14.50;99.90;;;;;;5054924;28;1076;-47
2022/02/06 12:26:48;;;;;;;;;;;14.50;99.90;;;;;;5055750;28;995;-47
2022/02/06 12:29:21;;;;;;;;;;;14.50;99.90;;;;;;5074596;28;901;-47
2022/02/06 12:31:57;;;;;;;;;;;14.50;99.90;;;;;;5035055;28;873;-47
2022/02/06 12:37:33;;;;;;;;;;;14.50;99.90;;;;;;5047627;28;1175;-47
2022/02/06 12:40:21;;;;;;;;;;;14.50;99.90;;;;;;5038594;28;1957;-48
2022/02/06 12:42:57;;;;;;;;;;;14.50;99.90;;;;;;5052469;28;892;-47
2022/02/06 12:45:24;;;;;;;;;;;14.50;99.90;;;;;;5056337;28;793;-47
2022/02/06 12:47:54;;;;;;;;;;;14.50;99.90;;;;;;5038469;28;866;-48
2022/02/06 12:50:23;;;;;;;;;;;14.40;99.90;;;;;;5055547;28;916;-47
2022/02/06 12:52:52;;;;;;;;;;;14.50;99.90;;;;;;5056094;28;855;-47
2022/02/06 12:55:25;;;;;;;;;;;14.40;99.90;;;;;;5056319;28;924;-47
2022/02/06 12:57:57;;;;;;;;;;;14.40;99.90;;;;;;5056154;28;1894;-47
2022/02/06 13:00:45;;;;;;;;;;;14.40;99.90;;;;;;5056269;28;1036;-47
2022/02/06 13:03:30;;;;;;;;;;;14.40;99.90;;;;;;5007731;28;1217;-47
2022/02/06 13:06:18;;;;;;;;;;;14.40;99.90;;;;;;5059561;28;836;-47
2022/02/06 13:08:44;;;;;;;;;;;14.40;99.90;;;;;;5041717;28;1310;-47
2022/02/06 13:11:25;;;;;;;;;;;14.40;99.90;;;;;;5059081;28;838;-47
2022/02/06 13:14:08;;;;;;;;;;;14.40;99.90;;;;;;5043735;28;847;-47
2022/02/06 13:16:52;;;;;;;;;;;14.40;99.90;;;;;;5058982;28;854;-47
2022/02/06 13:25:12;;;;;;;;;;;14.30;99.90;;;;;;5056285;28;1168;-56
2022/02/06 13:30:44;;;;;;;;;;;14.30;99.90;;;;;;5059355;28;817;-56
2022/02/06 13:33:22;;;;;;;;;;;14.40;99.90;;;;;;5058723;28;1021;-56
2022/02/06 13:38:42;;;;;;;;;;;14.40;99.90;;;;;;5059031;28;1914;-56
2022/02/06 13:41:13;;;;;;;;;;;14.40;99.90;;;;;;5058677;28;886;-56
2022/02/06 13:43:42;;;;;;;;;;;14.40;99.90;;;;;;5041509;28;921;-47
2022/02/06 13:46:26;;;;;;;;;;;14.40;99.90;;;;;;5059156;28;803;-55
2022/02/06 13:48:55;;;;;;;;;;;14.40;99.90;;;;;;5058811;28;842;-56
2022/02/06 13:51:23;;;;;;;;;;;14.40;99.90;;;;;;5058840;28;857;-56
2022/02/06 13:53:57;;;;;;;;;;;14.40;99.90;;;;;;5058775;28;809;-56
2022/02/06 13:56:25;;;;;;;;;;;14.40;99.90;;;;;;5003934;28;1231;-55
2022/02/06 13:58:58;;;;;;;;;;;14.40;99.90;;;;;;5057881;28;1902;-55
2022/02/06 14:01:40;;;;;;;;;;;14.30;99.90;;;;;;5058562;28;840;-56
2022/02/06 14:04:07;;;;;;;;;;;14.40;99.90;;;;;;5007604;28;961;-56
2022/02/06 14:06:49;;;;;;;;;;;14.30;99.90;;;;;;5057854;28;826;-56
2022/02/06 14:09:22;;;;;;;;;;;14.30;99.90;;;;;;5057861;28;819;-56
2022/02/06 14:12:06;;;;;;;;;;;14.40;99.90;;;;;;5056402;28;1101;-56
2022/02/06 14:14:51;;;;;;;;;;;14.30;99.90;;;;;;5058180;28;953;-56
2022/02/06 14:17:39;;;;;;;;;;;14.30;99.90;;;;;;5058584;28;702;-56
2022/02/06 14:20:25;;;;;;;;;;;14.30;99.90;;;;;;5057622;28;1914;-56
2022/02/06 14:23:15;;;;;;;;;;;14.30;99.90;;;;;;5058263;28;1119;-56
2022/02/06 14:25:45;;;;;;;;;;;14.30;99.90;;;;;;5057370;28;1246;-56
2022/02/06 14:28:16;;;;;;;;;;;14.30;99.90;;;;;;5057842;28;849;-56
2022/02/06 14:30:43;;;;;;;;;;;14.30;99.90;;;;;;5057686;28;835;-47
2022/02/06 14:33:10;;;;;;;;;;;14.30;99.90;;;;;;5058244;28;1132;-56
2022/02/06 14:35:54;;;;;;;;;;;14.30;99.90;;;;;;5058029;28;806;-56
2022/02/06 14:38:36;;;;;;;;;;;14.20;99.90;;;;;;5057369;28;1906;-56
2022/02/06 14:43:56;;;;;;;;;;;14.20;99.90;;;;;;5034241;28;1200;-56
2022/02/06 14:46:35;;;;;;;;;;;14.20;99.90;;;;;;5057513;28;864;-56
2022/02/06 14:49:06;;;;;;;;;;;14.20;99.90;;;;;;5056610;28;856;-56
2022/02/06 14:51:33;;;;;;;;;;;14.20;99.90;;;;;;5041192;28;904;-56
2022/02/06 14:54:02;;;;;;;;;;;14.20;99.90;;;;;;5075122;28;1078;-56
2022/02/06 14:56:28;;;;;;;;;;;14.20;99.90;;;;;;5074959;28;1003;-56
2022/02/06 14:59:00;;;;;;;;;;;14.20;99.90;;;;;;5072821;28;1901;-56
2022/02/06 15:01:28;;;;;;;;;;;14.20;99.90;;;;;;5070758;28;1348;-56
2022/02/06 15:03:54;;;;;;;;;;;14.10;99.90;;;;;;5067132;28;1028;-56
2022/02/06 15:06:20;;;;;;;;;;;14.10;99.90;;;;;;5057453;28;789;-56
2022/02/06 15:08:46;;;;;;;;;;;14.10;99.90;;;;;;5057302;28;807;-56
2022/02/06 15:11:12;;;;;;;;;;;14.10;99.90;;;;;;5057319;28;774;-56
2022/02/06 15:13:38;;;;;;;;;;;14.10;99.90;;;;;;5022744;28;956;-56
2022/02/06 15:16:19;;;;;;;;;;;14.10;99.90;;;;;;5038293;28;964;-56
2022/02/06 15:21:35;;;;;;;;;;;14.10;99.90;;;;;;5037003;28;1104;-56
2022/02/06 15:24:27;;;;;;;;;;;14.10;99.90;;;;;;5056222;28;1287;-56
2022/02/06 15:26:54;;;;;;;;;;;14.10;99.90;;;;;;5057688;28;1423;-56
2022/02/06 15:29:21;;;;;;;;;;;14.10;99.90;;;;;;5006961;28;1049;-56
2022/02/06 15:31:52;;;;;;;;;;;14.10;99.90;;;;;;5055694;28;971;-55
2022/02/06 15:34:18;;;;;;;;;;;14.10;99.90;;;;;;5055496;28;1198;-56
2022/02/06 15:36:50;;;;;;;;;;;14.10;99.90;;;;;;5037929;28;1167;-56
2022/02/06 15:39:23;;;;;;;;;;;14.10;99.90;;;;;;5056796;28;1910;-56
2022/02/06 15:41:52;;;;;;;;;;;14.20;99.90;;;;;;5020392;28;998;-56
2022/02/06 15:44:45;;;;;;;;;;;14.20;99.90;;;;;;5057021;28;779;-56
2022/02/06 15:47:11;;;;;;;;;;;14.20;99.90;;;;;;5056316;28;859;-56
2022/02/06 15:49:38;;;;;;;;;;;14.20;99.90;;;;;;5056829;28;781;-56
2022/02/06 15:52:07;;;;;;;;;;;14.30;99.90;;;;;;5003413;28;1247;-56
2022/02/06 15:54:34;;;;;;;;;;;14.30;99.90;;;;;;5056646;28;801;-56
2022/02/06 15:57:01;;;;;;;;;;;14.30;99.90;;;;;;5022241;28;954;-56
2022/02/06 15:59:27;;;;;;;;;;;14.40;99.90;;;;;;5056706;28;1967;-56
2022/02/06 16:01:53;;;;;;;;;;;14.40;99.90;;;;;;5022292;28;1006;-56
2022/02/06 16:04:21;;;;;;;;;;;14.40;99.90;;;;;;5038620;28;944;-56
2022/02/06 16:06:53;;;;;;;;;;;14.40;99.90;;;;;;5056603;28;873;-56
2022/02/06 16:09:27;;;;;;;;;;;14.40;99.90;;;;;;5056633;28;853;-56
2022/02/06 16:11:54;;;;;;;;;;;14.40;99.90;;;;;;5056518;28;770;-56
2022/02/06 16:14:22;;;;;;;;;;;14.40;99.90;;;;;;5019749;28;973;-56
2022/02/06 16:16:49;;;;;;;;;;;14.40;99.90;;;;;;5056452;28;830;-56
2022/02/06 16:19:15;;;;;;;;;;;14.40;99.90;;;;;;5056488;28;1971;-55
2022/02/06 16:21:45;;;;;;;;;;;14.40;99.90;;;;;;5056203;28;830;-56
2022/02/06 16:24:11;;;;;;;;;;;14.40;99.90;;;;;;5056243;28;1120;-55
2022/02/06 16:26:38;;;;;;;;;;;14.40;99.90;;;;;;5056408;28;876;-56
2022/02/06 16:29:05;;;;;;;;;;;14.40;99.90;;;;;;5021681;28;905;-56
2022/02/06 16:31:32;;;;;;;;;;;14.30;99.90;;;;;;5056336;28;777;-56
2022/02/06 16:33:58;;;;;;;;;;;14.30;99.90;;;;;;5056314;28;783;-56
2022/02/06 16:36:25;;;;;;;;;;;14.30;99.90;;;;;;5058861;28;826;-56
2022/02/06 16:38:53;;;;;;;;;;;14.30;99.90;;;;;;5060010;28;1971;-56
2022/02/06 16:41:22;;;;;;;;;;;14.30;99.90;;;;;;5056356;28;1201;-56
2022/02/06 16:43:49;;;;;;;;;;;14.30;99.90;;;;;;5025166;28;940;-56
2022/02/06 16:46:16;;;;;;;;;;;14.20;99.90;;;;;;5060057;28;953;-56
2022/02/06 16:48:45;;;;;;;;;;;14.20;99.90;;;;;;5055055;28;921;-56
2022/02/06 16:51:11;;;;;;;;;;;14.20;99.90;;;;;;5055512;28;1329;-56
2022/02/06 16:53:39;;;;;;;;;;;14.20;99.90;;;;;;5077797;28;916;-56
2022/02/06 16:56:06;;;;;;;;;;;14.20;99.90;;;;;;5059976;28;1050;-56
2022/02/06 16:58:32;;;;;;;;;;;14.10;99.90;;;;;;5077897;28;1965;-56
2022/02/06 17:01:00;;;;;;;;;;;14.10;99.90;;;;;;5077769;28;1094;-56
2022/02/06 17:03:27;;;;;;;;;;;14.10;99.90;;;;;;5073493;28;834;-55
2022/02/06 17:05:55;;;;;;;;;;;14.10;99.90;;;;;;5059215;28;1030;-56
2022/02/06 17:08:21;;;;;;;;;;;14.10;99.90;;;;;;5059200;28;1297;-56
2022/02/06 17:10:50;;;;;;;;;;;14.10;99.90;;;;;;5058236;28;801;-56
2022/02/06 17:13:22;;;;;;;;;;;14.10;99.90;;;;;;5057730;28;851;-56
2022/02/06 17:15:48;;;;;;;;;;;14.10;99.90;;;;;;5022704;28;935;-56
2022/02/06 17:18:15;;;;;;;;;;;14.10;99.90;;;;;;5038479;28;964;-56
2022/02/06 17:20:41;;;;;;;;;;;14.10;99.90;;;;;;5057088;28;1902;-56
2022/02/06 17:23:10;;;;;;;;;;;14.10;99.90;;;;;;5040199;28;935;-56
2022/02/06 17:25:36;;;;;;;;;;;14.20;99.90;;;;;;5057611;28;1145;-56
2022/02/06 17:28:02;;;;;;;;;;;14.20;99.90;;;;;;5058497;28;890;-56
2022/02/06 17:30:29;;;;;;;;;;;14.20;99.90;;;;;;5059435;28;861;-56
2022/02/06 17:32:57;;;;;;;;;;;14.20;99.90;;;;;;5041086;28;977;-56
2022/02/06 17:35:25;;;;;;;;;;;14.30;99.90;;;;;;5058134;28;784;-56
2022/02/06 17:37:51;;;;;;;;;;;14.30;99.90;;;;;;5059134;28;924;-56
2022/02/06 17:40:17;;;;;;;;;;;14.30;99.90;;;;;;5059224;28;1979;-56
2022/02/06 17:42:45;;;;;;;;;;;14.30;99.90;;;;;;5040807;28;951;-57
2022/02/06 17:45:13;;;;;;;;;;;14.40;99.90;;;;;;5059250;28;849;-56
2022/02/06 17:47:42;;;;;;;;;;;14.40;99.90;;;;;;5041435;28;892;-56
2022/02/06 17:50:32;;;;;;;;;;;14.40;99.90;;;;;;5058266;28;868;-56
2022/02/06 17:52:59;;;;;;;;;;;14.40;99.90;;;;;;5057162;28;993;-56